Time;durP1;ratioP1;P1;durP2;ratioP2;P2;SDS_P1;SDS_P2;PMS_P1;PMS_P2;Temp;Humidity;BMP_temperature;BMP_pressure;BME280_temperature;BME280_humidity;BME280_pressure;Samples;Min_cycle;Max_cycle;Signal;HPM_P1;HPM_P2
2023/09/29 00:00:26;;;;;;;6.32;2.40;;;;;;;;;;5034174;28;20047;-75
2023/09/29 00:02:53;;;;;;;4.43;1.83;;;;;;;;;;5035900;28;20041;-74
2023/09/29 00:05:18;;;;;;;7.57;2.10;;;;;;;;;;5023953;28;20179;-75
2023/09/29 00:07:44;;;;;;;6.80;1.92;;;;;;;;;;5024141;28;20634;-75
2023/09/29 00:10:13;;;;;;;5.80;1.95;;;;;;;;;;5025756;28;20041;-75
2023/09/29 00:12:40;;;;;;;4.93;1.90;;;;;;;;;;5025130;28;20044;-74
2023/09/29 00:15:06;;;;;;;8.10;2.20;;;;;;;;;;5025844;28;20041;-74
2023/09/29 00:17:32;;;;;;;6.13;2.10;;;;;;;;;;5025739;28;20108;-75
2023/09/29 00:19:58;;;;;;;11.35;2.30;;;;;;;;;;5025830;28;20029;-75
2023/09/29 00:22:28;;;;;;;9.07;2.03;;;;;;;;;;5024222;28;20068;-75
2023/09/29 00:24:54;;;;;;;5.65;2.35;;;;;;;;;;5025874;28;20065;-74
2023/09/29 00:27:20;;;;;;;8.45;2.78;;;;;;;;;;5021202;28;20045;-75
2023/09/29 00:29:45;;;;;;;7.00;2.15;;;;;;;;;;5025464;28;20057;-75
2023/09/29 00:32:11;;;;;;;4.70;1.73;;;;;;;;;;5025609;28;20018;-75
2023/09/29 00:34:36;;;;;;;8.50;2.17;;;;;;;;;;5019862;28;20030;-74
2023/09/29 00:37:03;;;;;;;4.75;2.03;;;;;;;;;;5025320;28;20436;-74
2023/09/29 00:39:28;;;;;;;9.98;2.00;;;;;;;;;;5024581;28;20045;-75
2023/09/29 00:41:53;;;;;;;8.40;2.00;;;;;;;;;;5023223;28;20052;-75
2023/09/29 00:44:19;;;;;;;9.52;2.20;;;;;;;;;;5025608;28;20029;-75
2023/09/29 00:46:45;;;;;;;5.57;1.83;;;;;;;;;;5025282;28;20087;-74
2023/09/29 00:49:11;;;;;;;7.25;2.28;;;;;;;;;;5021014;28;20075;-75
2023/09/29 00:51:37;;;;;;;9.13;2.38;;;;;;;;;;5023426;28;20095;-75
2023/09/29 00:54:08;;;;;;;6.50;1.90;;;;;;;;;;5024782;28;20041;-75
2023/09/29 00:56:35;;;;;;;7.55;2.40;;;;;;;;;;5024824;28;20029;-75
2023/09/29 00:59:01;;;;;;;6.50;2.03;;;;;;;;;;5025425;28;20116;-75
2023/09/29 01:01:26;;;;;;;5.63;2.28;;;;;;;;;;5024736;28;20128;-75
2023/09/29 01:03:51;;;;;;;7.93;1.90;;;;;;;;;;5023005;28;20423;-75
2023/09/29 01:06:17;;;;;;;7.50;2.15;;;;;;;;;;5025303;28;20053;-75
2023/09/29 01:08:44;;;;;;;6.38;2.03;;;;;;;;;;5024117;28;20029;-75
2023/09/29 01:11:10;;;;;;;6.50;2.40;;;;;;;;;;5025500;28;20115;-75
2023/09/29 01:13:40;;;;;;;9.60;2.28;;;;;;;;;;5024123;28;20523;-75
2023/09/29 01:16:09;;;;;;;6.82;2.17;;;;;;;;;;5016808;28;20040;-75
2023/09/29 01:18:36;;;;;;;7.13;2.55;;;;;;;;;;5025171;28;20522;-75
2023/09/29 01:21:03;;;;;;;7.63;2.45;;;;;;;;;;5024135;28;20041;-75
2023/09/29 01:23:31;;;;;;;5.95;2.58;;;;;;;;;;5030239;28;20033;-75
2023/09/29 01:25:56;;;;;;;7.22;3.13;;;;;;;;;;5038070;28;20493;-75
2023/09/29 01:28:21;;;;;;;8.50;2.63;;;;;;;;;;5036953;28;20044;-75
2023/09/29 01:30:53;;;;;;;7.15;2.38;;;;;;;;;;5026498;28;20495;-75
2023/09/29 01:33:18;;;;;;;5.65;2.55;;;;;;;;;;5023540;28;20049;-75
2023/09/29 01:35:44;;;;;;;7.88;2.70;;;;;;;;;;5024469;28;20087;-75
2023/09/29 01:38:09;;;;;;;7.05;2.50;;;;;;;;;;5025071;28;20021;-75
2023/09/29 01:40:34;;;;;;;7.88;2.70;;;;;;;;;;5024090;28;20137;-74
2023/09/29 01:43:00;;;;;;;9.70;2.65;;;;;;;;;;5023914;28;20037;-75
2023/09/29 01:45:26;;;;;;;7.65;2.42;;;;;;;;;;5022793;28;20060;-75
2023/09/29 01:47:52;;;;;;;6.82;2.53;;;;;;;;;;5019837;28;20140;-75
2023/09/29 01:50:22;;;;;;;13.60;3.40;;;;;;;;;;5018904;28;20112;-75
2023/09/29 01:52:48;;;;;;;9.75;3.00;;;;;;;;;;5023897;28;20072;-75
2023/09/29 01:55:15;;;;;;;7.07;2.80;;;;;;;;;;5022644;28;20411;-75
2023/09/29 01:57:43;;;;;;;7.95;2.90;;;;;;;;;;5023484;28;20594;-75
2023/09/29 02:00:14;;;;;;;8.68;3.38;;;;;;;;;;5022344;28;20128;-75
2023/09/29 02:02:39;;;;;;;7.80;3.25;;;;;;;;;;5023364;28;20033;-74
2023/09/29 02:05:07;;;;;;;5.82;2.60;;;;;;;;;;5023063;28;20040;-75
2023/09/29 02:07:32;;;;;;;7.75;3.10;;;;;;;;;;5021902;28;20102;-75
2023/09/29 02:09:58;;;;;;;5.05;2.85;;;;;;;;;;5021615;28;20046;-75
2023/09/29 02:12:23;;;;;;;8.27;2.70;;;;;;;;;;5023696;28;20514;-74
2023/09/29 02:14:50;;;;;;;11.00;2.67;;;;;;;;;;5021955;28;20622;-75
2023/09/29 02:17:16;;;;;;;7.10;2.40;;;;;;;;;;5024277;28;20025;-75
2023/09/29 02:19:41;;;;;;;8.43;2.55;;;;;;;;;;5023280;28;20041;-75
2023/09/29 02:22:06;;;;;;;4.85;2.53;;;;;;;;;;5023776;28;20041;-75
2023/09/29 02:24:33;;;;;;;6.68;2.40;;;;;;;;;;5023232;28;20597;-75
2023/09/29 02:26:58;;;;;;;8.13;2.17;;;;;;;;;;5022031;28;20099;-75
2023/09/29 02:29:25;;;;;;;5.60;2.05;;;;;;;;;;5024064;28;20518;-75
2023/09/29 02:31:51;;;;;;;6.20;1.65;;;;;;;;;;5016773;28;20075;-74
2023/09/29 02:34:17;;;;;;;7.45;2.55;;;;;;;;;;5020506;28;20772;-75
2023/09/29 02:36:42;;;;;;;6.25;2.17;;;;;;;;;;5023127;28;20043;-74
2023/09/29 02:39:08;;;;;;;6.38;2.63;;;;;;;;;;5023682;28;20115;-75
2023/09/29 02:41:35;;;;;;;5.15;2.60;;;;;;;;;;5014610;28;20574;-74
2023/09/29 02:44:01;;;;;;;5.38;2.40;;;;;;;;;;5022652;28;20036;-74
2023/09/29 02:46:27;;;;;;;3.60;2.10;;;;;;;;;;5025111;28;20064;-74
2023/09/29 02:48:52;;;;;;;10.30;2.40;;;;;;;;;;5030610;28;20054;-75
2023/09/29 02:51:19;;;;;;;8.27;2.40;;;;;;;;;;5034047;28;20889;-74
2023/09/29 02:53:48;;;;;;;8.38;2.30;;;;;;;;;;5028293;28;20040;-75
2023/09/29 02:56:16;;;;;;;4.90;2.25;;;;;;;;;;5022264;28;20449;-75
2023/09/29 02:58:43;;;;;;;6.78;2.53;;;;;;;;;;5022489;28;20098;-75
2023/09/29 03:01:12;;;;;;;5.32;2.40;;;;;;;;;;5023245;28;20037;-75
2023/09/29 03:03:44;;;;;;;5.28;2.55;;;;;;;;;;5026198;28;20130;-75
2023/09/29 03:06:17;;;;;;;5.18;2.40;;;;;;;;;;5026903;28;20130;-75
2023/09/29 03:08:43;;;;;;;4.78;2.33;;;;;;;;;;5026725;28;20026;-75
2023/09/29 03:11:09;;;;;;;4.07;2.60;;;;;;;;;;5027530;28;20065;-75
2023/09/29 03:13:37;;;;;;;2.55;1.63;;;;;;;;;;5026939;28;20045;-75
2023/09/29 03:16:03;;;;;;;4.90;2.65;;;;;;;;;;5017877;28;20034;-75
2023/09/29 03:18:30;;;;;;;5.05;2.75;;;;;;;;;;5026637;28;20042;-74
2023/09/29 03:20:57;;;;;;;4.13;2.40;;;;;;;;;;5026210;28;20541;-75
2023/09/29 03:23:23;;;;;;;4.82;2.33;;;;;;;;;;5025677;28;20033;-75
2023/09/29 03:25:48;;;;;;;4.72;2.58;;;;;;;;;;5026666;28;20049;-75
2023/09/29 03:28:16;;;;;;;3.22;2.45;;;;;;;;;;5026009;28;20507;-75
2023/09/29 03:30:42;;;;;;;3.13;2.05;;;;;;;;;;5026798;28;20519;-75
2023/09/29 03:33:07;;;;;;;4.88;2.65;;;;;;;;;;5026691;28;20052;-75
2023/09/29 03:35:32;;;;;;;4.28;2.88;;;;;;;;;;5025824;28;20955;-75
2023/09/29 03:37:58;;;;;;;4.22;2.65;;;;;;;;;;5026761;28;20040;-75
2023/09/29 03:40:24;;;;;;;6.95;2.70;;;;;;;;;;5024672;28;20751;-75
2023/09/29 03:42:49;;;;;;;5.03;2.75;;;;;;;;;;5025654;28;20539;-75
2023/09/29 03:45:15;;;;;;;3.72;2.30;;;;;;;;;;5026515;28;20107;-75
2023/09/29 03:47:41;;;;;;;3.28;2.20;;;;;;;;;;5025834;28;20521;-75
2023/09/29 03:50:11;;;;;;;4.80;2.50;;;;;;;;;;5026417;28;20551;-75
2023/09/29 03:52:37;;;;;;;6.13;2.55;;;;;;;;;;5024366;28;20422;-75
2023/09/29 03:55:03;;;;;;;4.35;2.50;;;;;;;;;;5025621;28;20848;-75
2023/09/29 03:57:28;;;;;;;3.45;2.40;;;;;;;;;;5026281;28;20528;-75
2023/09/29 03:59:54;;;;;;;5.43;3.05;;;;;;;;;;5025709;28;20034;-74
2023/09/29 04:02:20;;;;;;;5.75;2.78;;;;;;;;;;5025125;28;20725;-75
2023/09/29 04:04:46;;;;;;;3.30;2.60;;;;;;;;;;5025974;28;20045;-75
2023/09/29 04:07:11;;;;;;;4.53;2.53;;;;;;;;;;5026361;28;20069;-75
2023/09/29 04:09:36;;;;;;;5.15;2.72;;;;;;;;;;5026385;28;20128;-75
2023/09/29 04:12:02;;;;;;;3.88;2.40;;;;;;;;;;5024687;28;20034;-74
2023/09/29 04:14:27;;;;;;;5.13;3.00;;;;;;;;;;5033719;28;20039;-75
2023/09/29 04:16:53;;;;;;;5.97;2.90;;;;;;;;;;5040637;28;20033;-75
2023/09/29 04:19:19;;;;;;;4.70;2.70;;;;;;;;;;5032612;28;20076;-75
2023/09/29 04:21:45;;;;;;;3.67;2.75;;;;;;;;;;5025155;28;20041;-75
2023/09/29 04:24:10;;;;;;;4.82;2.70;;;;;;;;;;5026469;28;20053;-75
2023/09/29 04:26:36;;;;;;;4.82;2.60;;;;;;;;;;5023943;28;20491;-75
2023/09/29 04:29:01;;;;;;;4.88;2.63;;;;;;;;;;5018645;28;20025;-74
2023/09/29 04:31:27;;;;;;;7.45;2.67;;;;;;;;;;5025506;28;20038;-75
2023/09/29 04:33:52;;;;;;;6.85;3.08;;;;;;;;;;5025177;28;20148;-74
2023/09/29 04:36:17;;;;;;;6.18;3.10;;;;;;;;;;5025231;28;20095;-75
2023/09/29 04:38:43;;;;;;;5.30;2.78;;;;;;;;;;5025153;28;20025;-75
2023/09/29 04:41:08;;;;;;;7.53;3.00;;;;;;;;;;5025501;28;20120;-75
2023/09/29 04:43:34;;;;;;;5.32;2.65;;;;;;;;;;5023589;28;20538;-74
2023/09/29 04:45:59;;;;;;;4.13;3.03;;;;;;;;;;5023666;28;20084;-75
2023/09/29 04:48:25;;;;;;;6.90;2.83;;;;;;;;;;5023139;28;20037;-74
2023/09/29 04:50:50;;;;;;;6.13;3.15;;;;;;;;;;5025118;28;20034;-75
2023/09/29 04:53:15;;;;;;;5.40;2.80;;;;;;;;;;5025742;28;20047;-75
2023/09/29 04:55:41;;;;;;;4.10;2.67;;;;;;;;;;5019291;28;20030;-75
2023/09/29 04:58:08;;;;;;;5.60;3.17;;;;;;;;;;5024828;28;20041;-74
2023/09/29 05:00:35;;;;;;;9.73;3.30;;;;;;;;;;5024502;28;20045;-75
2023/09/29 05:03:01;;;;;;;4.00;2.88;;;;;;;;;;5024583;28;20065;-74
2023/09/29 05:05:26;;;;;;;4.45;2.90;;;;;;;;;;5025152;28;20519;-75
2023/09/29 05:07:52;;;;;;;4.22;2.97;;;;;;;;;;5024664;28;20033;-75
2023/09/29 05:10:19;;;;;;;4.15;3.00;;;;;;;;;;5023133;28;20144;-75
2023/09/29 05:12:45;;;;;;;4.82;3.17;;;;;;;;;;5022626;28;20043;-74
2023/09/29 05:15:10;;;;;;;5.65;3.25;;;;;;;;;;5022700;28;20033;-75
2023/09/29 05:17:36;;;;;;;5.97;3.10;;;;;;;;;;5023100;28;20017;-74
2023/09/29 05:20:02;;;;;;;4.65;3.22;;;;;;;;;;5024811;28;20064;-74
2023/09/29 05:22:28;;;;;;;4.25;3.20;;;;;;;;;;5024672;28;20033;-74
2023/09/29 05:24:53;;;;;;;4.90;2.88;;;;;;;;;;5023379;28;20034;-75
2023/09/29 05:27:22;;;;;;;6.50;3.22;;;;;;;;;;5022776;28;20049;-75
2023/09/29 05:29:47;;;;;;;6.38;3.13;;;;;;;;;;5023197;28;20103;-75
2023/09/29 05:32:12;;;;;;;5.60;3.20;;;;;;;;;;5023782;28;20030;-74
2023/09/29 05:34:38;;;;;;;4.60;3.00;;;;;;;;;;5025305;28;20118;-75
2023/09/29 05:37:04;;;;;;;7.40;3.47;;;;;;;;;;5028834;28;20045;-74
2023/09/29 05:39:30;;;;;;;6.15;3.40;;;;;;;;;;5029447;28;20049;-74
2023/09/29 05:41:56;;;;;;;5.53;3.15;;;;;;;;;;5035342;28;20042;-74
2023/09/29 05:44:21;;;;;;;4.93;3.55;;;;;;;;;;5023462;28;20025;-74
2023/09/29 05:46:46;;;;;;;7.45;3.63;;;;;;;;;;5021124;28;20132;-74
2023/09/29 05:49:12;;;;;;;5.65;3.40;;;;;;;;;;5023891;28;20482;-75
2023/09/29 05:51:37;;;;;;;4.68;3.15;;;;;;;;;;5022439;28;20135;-74
2023/09/29 05:54:03;;;;;;;4.35;3.13;;;;;;;;;;5023187;28;20131;-74
2023/09/29 05:56:31;;;;;;;6.20;3.03;;;;;;;;;;5024186;28;20114;-75
2023/09/29 05:58:57;;;;;;;5.72;2.90;;;;;;;;;;5023747;28;20033;-74
2023/09/29 06:01:23;;;;;;;6.38;3.20;;;;;;;;;;5022364;28;20033;-74
2023/09/29 06:03:48;;;;;;;5.97;3.10;;;;;;;;;;5016839;28;20041;-74
2023/09/29 06:06:13;;;;;;;5.32;2.97;;;;;;;;;;5010241;28;20049;-74
2023/09/29 06:08:40;;;;;;;5.60;2.72;;;;;;;;;;5005455;28;20053;-75
2023/09/29 06:11:05;;;;;;;10.30;3.47;;;;;;;;;;5001826;28;20271;-74
2023/09/29 06:13:31;;;;;;;7.47;3.08;;;;;;;;;;5019870;28;20116;-75
2023/09/29 06:15:57;;;;;;;6.05;2.90;;;;;;;;;;5022374;28;20032;-75
2023/09/29 06:18:23;;;;;;;7.75;2.75;;;;;;;;;;5022654;28;20790;-74
2023/09/29 06:20:48;;;;;;;7.13;2.72;;;;;;;;;;5022148;28;20040;-74
2023/09/29 06:23:14;;;;;;;11.25;3.00;;;;;;;;;;5022170;28;20026;-75
2023/09/29 06:25:39;;;;;;;6.78;3.03;;;;;;;;;;5023257;28;20037;-74
2023/09/29 06:28:05;;;;;;;11.23;2.80;;;;;;;;;;5023335;28;20033;-75
2023/09/29 06:30:30;;;;;;;5.40;2.88;;;;;;;;;;5022299;28;20037;-74
2023/09/29 06:32:56;;;;;;;5.95;2.90;;;;;;;;;;5022734;28;20140;-74
2023/09/29 06:35:22;;;;;;;6.15;2.60;;;;;;;;;;5022362;28;20017;-74
2023/09/29 06:37:47;;;;;;;7.03;3.10;;;;;;;;;;5025258;28;20029;-74
2023/09/29 06:40:12;;;;;;;4.90;2.50;;;;;;;;;;5027129;28;20064;-74
2023/09/29 06:42:38;;;;;;;7.07;3.20;;;;;;;;;;5025990;28;20048;-74
2023/09/29 06:45:06;;;;;;;4.47;2.47;;;;;;;;;;5027031;28;20056;-75
2023/09/29 06:47:31;;;;;;;4.47;2.53;;;;;;;;;;5026986;28;20030;-74
2023/09/29 06:49:57;;;;;;;5.00;2.42;;;;;;;;;;5027797;28;20644;-75
2023/09/29 06:52:23;;;;;;;5.68;2.83;;;;;;;;;;5027377;28;20029;-74
2023/09/29 06:54:48;;;;;;;6.55;2.70;;;;;;;;;;5026610;28;20612;-74
2023/09/29 06:57:13;;;;;;;6.10;2.70;;;;;;;;;;5027703;28;20046;-75
2023/09/29 06:59:39;;;;;;;5.57;2.65;;;;;;;;;;5027903;28;20033;-74
2023/09/29 07:02:04;;;;;;;5.22;2.80;;;;;;;;;;5031239;28;20017;-75
2023/09/29 07:04:29;;;;;;;4.88;2.75;;;;;;;;;;5036944;28;20037;-75
2023/09/29 07:06:55;;;;;;;7.65;2.70;;;;;;;;;;5042487;28;20525;-74
2023/09/29 07:09:20;;;;;;;5.88;2.38;;;;;;;;;;5029266;28;20059;-74
2023/09/29 07:11:45;;;;;;;6.00;2.50;;;;;;;;;;5027273;28;20034;-74
2023/09/29 07:14:11;;;;;;;8.32;2.90;;;;;;;;;;5025897;28;20026;-75
2023/09/29 07:16:38;;;;;;;3.85;2.22;;;;;;;;;;5025010;28;20111;-74
2023/09/29 07:19:03;;;;;;;5.97;2.70;;;;;;;;;;5026770;28;20038;-74
2023/09/29 07:21:29;;;;;;;9.10;2.60;;;;;;;;;;5025045;28;20106;-74
2023/09/29 07:23:56;;;;;;;7.65;3.15;;;;;;;;;;5026417;28;20037;-73
2023/09/29 07:26:21;;;;;;;7.30;2.80;;;;;;;;;;5025282;28;20140;-73
2023/09/29 07:28:48;;;;;;;6.13;2.55;;;;;;;;;;5026800;28;20825;-75
2023/09/29 07:31:13;;;;;;;5.55;2.50;;;;;;;;;;5023290;28;20095;-75
2023/09/29 07:33:38;;;;;;;5.47;2.95;;;;;;;;;;5025740;28;20045;-75
2023/09/29 07:36:05;;;;;;;5.57;2.72;;;;;;;;;;5021000;28;20034;-78
2023/09/29 07:38:31;;;;;;;4.68;2.50;;;;;;;;;;5023583;28;20668;-77
2023/09/29 07:40:56;;;;;;;11.07;2.58;;;;;;;;;;5026262;28;20040;-77
2023/09/29 07:43:22;;;;;;;4.50;2.50;;;;;;;;;;5025375;28;20511;-76
2023/09/29 07:45:47;;;;;;;8.98;2.80;;;;;;;;;;5024319;28;20133;-76
2023/09/29 07:48:14;;;;;;;7.22;3.05;;;;;;;;;;5025477;28;20124;-75
2023/09/29 07:50:39;;;;;;;5.05;2.70;;;;;;;;;;5024789;28;20037;-73
2023/09/29 07:53:05;;;;;;;7.68;2.88;;;;;;;;;;5021498;28;20059;-74
2023/09/29 07:55:30;;;;;;;6.43;2.72;;;;;;;;;;5014526;28;20037;-74
2023/09/29 07:57:57;;;;;;;8.40;2.75;;;;;;;;;;5026915;28;20084;-75
2023/09/29 08:00:22;;;;;;;8.93;3.25;;;;;;;;;;5023894;28;20065;-75
2023/09/29 08:02:48;;;;;;;5.88;2.28;;;;;;;;;;5025215;28;20554;-75
2023/09/29 08:05:13;;;;;;;9.10;3.08;;;;;;;;;;5024851;28;20040;-75
2023/09/29 08:07:40;;;;;;;7.18;2.80;;;;;;;;;;5026502;28;20037;-75
2023/09/29 08:10:07;;;;;;;8.70;3.20;;;;;;;;;;5025173;28;20033;-75
2023/09/29 08:12:32;;;;;;;6.90;2.92;;;;;;;;;;5023846;28;20048;-75
2023/09/29 08:14:57;;;;;;;6.82;2.33;;;;;;;;;;5024949;28;20037;-75
2023/09/29 08:17:23;;;;;;;7.03;2.67;;;;;;;;;;5026718;28;20136;-75
2023/09/29 08:19:48;;;;;;;7.63;2.42;;;;;;;;;;5024866;28;20041;-75
2023/09/29 08:22:14;;;;;;;10.82;2.92;;;;;;;;;;5021958;28;20137;-75
2023/09/29 08:24:39;;;;;;;11.07;3.05;;;;;;;;;;5024382;28;20045;-75
2023/09/29 08:27:04;;;;;;;11.20;3.00;;;;;;;;;;5030329;28;20106;-75
2023/09/29 08:29:31;;;;;;;7.85;2.75;;;;;;;;;;5035313;28;20026;-75
2023/09/29 08:31:58;;;;;;;9.30;3.00;;;;;;;;;;5029050;28;20039;-75
2023/09/29 08:34:24;;;;;;;7.28;3.25;;;;;;;;;;5024395;28;20040;-75
2023/09/29 08:36:51;;;;;;;12.60;2.83;;;;;;;;;;5023891;28;20438;-74
2023/09/29 08:39:17;;;;;;;9.15;2.20;;;;;;;;;;5025668;28;20171;-75
2023/09/29 08:41:53;;;;;;;7.35;2.53;;;;;;;;;;5025389;28;20984;-75
2023/09/29 08:44:21;;;;;;;7.97;2.83;;;;;;;;;;5025951;28;20029;-75
2023/09/29 08:46:49;;;;;;;7.53;2.75;;;;;;;;;;5025305;28;20033;-75
2023/09/29 08:49:17;;;;;;;8.60;2.67;;;;;;;;;;5025086;28;20029;-75
2023/09/29 08:51:46;;;;;;;6.53;2.78;;;;;;;;;;5023066;28;20041;-75
2023/09/29 08:54:13;;;;;;;8.98;3.10;;;;;;;;;;5023976;28;20076;-75
2023/09/29 08:56:39;;;;;;;8.43;2.58;;;;;;;;;;5023549;28;20052;-75
2023/09/29 08:59:05;;;;;;;9.10;3.00;;;;;;;;;;5023273;28;20032;-74
2023/09/29 09:01:31;;;;;;;8.32;3.95;;;;;;;;;;5024356;28;20067;-75
2023/09/29 09:03:57;;;;;;;7.93;2.75;;;;;;;;;;5023150;28;20090;-75
2023/09/29 09:06:24;;;;;;;7.53;2.72;;;;;;;;;;5023721;28;20045;-75
2023/09/29 09:08:54;;;;;;;7.38;3.00;;;;;;;;;;5024472;28;20049;-72
2023/09/29 09:11:21;;;;;;;8.30;2.85;;;;;;;;;;5024873;28;20056;-74
2023/09/29 09:14:03;;;;;;;10.98;2.92;;;;;;;;;;5020291;28;20041;-79
2023/09/29 09:16:31;;;;;;;8.30;2.70;;;;;;;;;;5024746;28;20462;-74
2023/09/29 09:19:08;;;;;;;8.70;2.58;;;;;;;;;;5023912;28;20033;-74
2023/09/29 09:21:33;;;;;;;7.05;2.70;;;;;;;;;;5014082;28;20052;-74
2023/09/29 09:23:59;;;;;;;8.25;3.17;;;;;;;;;;5024294;28;20042;-74
2023/09/29 09:26:28;;;;;;;9.07;2.83;;;;;;;;;;5024835;28;20025;-74
2023/09/29 09:28:54;;;;;;;7.57;2.72;;;;;;;;;;5013246;28;20580;-76
2023/09/29 09:31:19;;;;;;;8.20;2.70;;;;;;;;;;5016910;28;20045;-74
2023/09/29 09:33:51;;;;;;;6.43;2.45;;;;;;;;;;5018962;28;20041;-74
2023/09/29 09:36:17;;;;;;;7.90;2.90;;;;;;;;;;5024237;28;20036;-75
2023/09/29 09:38:43;;;;;;;9.55;3.28;;;;;;;;;;5024349;28;20403;-72
2023/09/29 09:41:09;;;;;;;13.73;3.90;;;;;;;;;;5020522;28;20033;-73
2023/09/29 09:43:35;;;;;;;8.55;3.30;;;;;;;;;;5023756;28;20044;-74
2023/09/29 09:46:08;;;;;;;11.07;2.97;;;;;;;;;;5020500;28;20038;-74
2023/09/29 09:48:50;;;;;;;9.73;2.50;;;;;;;;;;5005853;28;20486;-73
2023/09/29 09:51:34;;;;;;;8.20;3.28;;;;;;;;;;5020690;28;20050;-74
2023/09/29 09:54:03;;;;;;;9.73;3.38;;;;;;;;;;5036437;28;20045;-74
2023/09/29 09:56:48;;;;;;;9.13;3.13;;;;;;;;;;5034601;28;20031;-73
2023/09/29 09:59:14;;;;;;;10.25;3.40;;;;;;;;;;5020593;28;20022;-72
2023/09/29 10:01:40;;;;;;;13.43;6.10;;;;;;;;;;5023258;28;20709;-73
2023/09/29 10:04:07;;;;;;;11.35;3.10;;;;;;;;;;5025030;28;20047;-73
2023/09/29 10:06:34;;;;;;;9.35;3.20;;;;;;;;;;5024355;28;20040;-73
2023/09/29 10:09:01;;;;;;;11.88;4.07;;;;;;;;;;5024413;28;20041;-73
2023/09/29 10:11:27;;;;;;;8.95;3.15;;;;;;;;;;5021473;28;20051;-72
2023/09/29 10:14:02;;;;;;;9.10;3.17;;;;;;;;;;5024280;28;20288;-73
2023/09/29 10:16:28;;;;;;;9.57;2.85;;;;;;;;;;5023927;28;20041;-73
2023/09/29 10:19:11;;;;;;;8.50;2.83;;;;;;;;;;5023880;28;20044;-73
2023/09/29 10:21:45;;;;;;;9.55;2.85;;;;;;;;;;5022196;28;20056;-73
2023/09/29 10:24:31;;;;;;;12.90;6.38;;;;;;;;;;5022305;28;20634;-73
2023/09/29 10:27:04;;;;;;;12.15;3.30;;;;;;;;;;5023842;28;20056;-73
2023/09/29 10:29:33;;;;;;;9.75;4.72;;;;;;;;;;5023521;28;20029;-74
2023/09/29 10:32:20;;;;;;;12.02;3.30;;;;;;;;;;5024231;28;20025;-73
2023/09/29 10:34:48;;;;;;;9.75;2.83;;;;;;;;;;5023249;28;20103;-73
2023/09/29 10:37:15;;;;;;;10.77;2.63;;;;;;;;;;5022300;28;20049;-74
2023/09/29 10:39:44;;;;;;;10.82;3.15;;;;;;;;;;5022067;28;20045;-73
2023/09/29 10:42:15;;;;;;;8.82;2.83;;;;;;;;;;5016280;28;20045;-73
2023/09/29 10:44:52;;;;;;;8.93;2.75;;;;;;;;;;5021009;28;20729;-73
2023/09/29 10:47:38;;;;;;;10.70;2.42;;;;;;;;;;5024182;28;20033;-73
2023/09/29 10:50:05;;;;;;;10.88;2.88;;;;;;;;;;5011967;28;20063;-73
2023/09/29 10:52:30;;;;;;;19.63;3.50;;;;;;;;;;5020681;28;20076;-73
2023/09/29 10:54:56;;;;;;;9.80;2.75;;;;;;;;;;5023531;28;20080;-73
2023/09/29 10:57:22;;;;;;;10.80;2.92;;;;;;;;;;5024204;28;20041;-73
2023/09/29 10:59:48;;;;;;;7.93;2.63;;;;;;;;;;5013058;28;20046;-73
2023/09/29 11:02:14;;;;;;;9.45;2.78;;;;;;;;;;5019974;28;20021;-73
2023/09/29 11:04:40;;;;;;;11.02;2.63;;;;;;;;;;5023542;28;20057;-73
2023/09/29 11:07:05;;;;;;;10.52;3.05;;;;;;;;;;5023337;28;20030;-74
2023/09/29 11:09:32;;;;;;;8.00;2.60;;;;;;;;;;5023237;28;20049;-73
2023/09/29 11:11:58;;;;;;;8.25;2.55;;;;;;;;;;5023241;28;20072;-73
2023/09/29 11:14:36;;;;;;;11.65;2.42;;;;;;;;;;5029179;28;20112;-73
2023/09/29 11:17:02;;;;;;;7.40;2.45;;;;;;;;;;5028370;28;20075;-73
2023/09/29 11:19:30;;;;;;;7.65;2.17;;;;;;;;;;5033541;28;20621;-73
2023/09/29 11:22:00;;;;;;;4.47;1.73;;;;;;;;;;5022422;28;20124;-73
2023/09/29 11:24:25;;;;;;;6.72;1.80;;;;;;;;;;5026414;28;20609;-73
2023/09/29 11:26:55;;;;;;;8.75;2.92;;;;;;;;;;5024914;28;20045;-73
2023/09/29 11:29:28;;;;;;;6.68;2.80;;;;;;;;;;5020110;28;20030;-72
2023/09/29 11:31:54;;;;;;;4.53;1.80;;;;;;;;;;5012722;28;20058;-72
2023/09/29 11:34:20;;;;;;;3.78;1.67;;;;;;;;;;5021673;28;20048;-72
2023/09/29 11:36:46;;;;;;;2.40;1.80;;;;;;;;;;5026038;28;20033;-73
2023/09/29 11:39:18;;;;;;;3.75;2.33;;;;;;;;;;5026233;28;20045;-74
2023/09/29 11:41:45;;;;;;;4.65;2.60;;;;;;;;;;5024364;28;20080;-72
2023/09/29 11:44:10;;;;;;;5.68;2.78;;;;;;;;;;5024639;28;20033;-73
2023/09/29 11:46:36;;;;;;;6.22;2.80;;;;;;;;;;5026246;28;20044;-72
2023/09/29 11:49:02;;;;;;;4.45;2.30;;;;;;;;;;5025206;28;20064;-72
2023/09/29 11:51:28;;;;;;;4.15;2.45;;;;;;;;;;5026138;28;20160;-72
2023/09/29 11:53:54;;;;;;;5.00;2.33;;;;;;;;;;5023978;28;20079;-72
2023/09/29 11:56:20;;;;;;;5.07;2.20;;;;;;;;;;5026880;28;20388;-72
2023/09/29 11:58:46;;;;;;;5.50;2.20;;;;;;;;;;5024552;28;20048;-72
2023/09/29 12:01:12;;;;;;;4.05;2.08;;;;;;;;;;5026450;28;20037;-72
2023/09/29 12:03:37;;;;;;;6.35;2.17;;;;;;;;;;5024962;28;20049;-72
2023/09/29 12:06:03;;;;;;;8.00;2.20;;;;;;;;;;5026347;28;20103;-72
2023/09/29 12:08:29;;;;;;;5.10;2.13;;;;;;;;;;5012574;28;20120;-73
2023/09/29 12:10:55;;;;;;;5.35;2.05;;;;;;;;;;5021294;28;20021;-73
2023/09/29 12:13:20;;;;;;;5.65;2.10;;;;;;;;;;5024025;28;20056;-73
2023/09/29 12:15:46;;;;;;;3.78;1.85;;;;;;;;;;5022137;28;20399;-73
2023/09/29 12:18:12;;;;;;;4.55;2.35;;;;;;;;;;5023781;28;20166;-73
2023/09/29 12:20:38;;;;;;;3.80;1.67;;;;;;;;;;5023133;28;20099;-73
2023/09/29 12:23:06;;;;;;;6.32;3.22;;;;;;;;;;5022154;28;20034;-73
2023/09/29 12:25:35;;;;;;;9.52;3.60;;;;;;;;;;5021054;28;20064;-73
2023/09/29 12:28:00;;;;;;;6.95;3.05;;;;;;;;;;5023610;28;20057;-73
2023/09/29 12:30:26;;;;;;;7.45;3.08;;;;;;;;;;5022211;28;20037;-73
2023/09/29 12:32:51;;;;;;;6.05;3.30;;;;;;;;;;5023874;28;20045;-73
2023/09/29 12:35:17;;;;;;;6.80;2.83;;;;;;;;;;5023915;28;20037;-73
2023/09/29 12:37:43;;;;;;;5.88;2.63;;;;;;;;;;5027865;28;20102;-73
2023/09/29 12:40:13;;;;;;;6.82;3.03;;;;;;;;;;5034079;28;20081;-73
2023/09/29 12:42:42;;;;;;;6.57;3.60;;;;;;;;;;5041008;28;20045;-73
2023/09/29 12:45:11;;;;;;;5.25;3.03;;;;;;;;;;5032094;28;20040;-73
2023/09/29 12:47:36;;;;;;;11.85;3.40;;;;;;;;;;5025579;28;20061;-72
2023/09/29 12:50:03;;;;;;;8.32;2.90;;;;;;;;;;5024724;28;20064;-73
2023/09/29 12:52:28;;;;;;;6.95;2.80;;;;;;;;;;5023354;28;20037;-73
2023/09/29 12:54:56;;;;;;;10.02;2.58;;;;;;;;;;5022932;28;20052;-73
2023/09/29 12:57:22;;;;;;;6.82;2.60;;;;;;;;;;5023390;28;20504;-73
2023/09/29 12:59:47;;;;;;;6.80;2.55;;;;;;;;;;5021258;28;20076;-73
2023/09/29 13:02:13;;;;;;;5.10;2.38;;;;;;;;;;5023256;28;20111;-73
2023/09/29 13:04:38;;;;;;;7.50;2.78;;;;;;;;;;5022666;28;20080;-73
2023/09/29 13:07:08;;;;;;;4.90;2.45;;;;;;;;;;5022926;28;20073;-73
2023/09/29 13:09:35;;;;;;;7.63;2.42;;;;;;;;;;5022752;28;20037;-73
2023/09/29 13:12:01;;;;;;;8.32;2.33;;;;;;;;;;5022357;28;20041;-73
2023/09/29 13:14:26;;;;;;;5.65;2.10;;;;;;;;;;5021522;28;20025;-73
2023/09/29 13:16:52;;;;;;;9.13;1.98;;;;;;;;;;5020310;28;20072;-73
2023/09/29 13:19:18;;;;;;;6.88;2.13;;;;;;;;;;5023589;28;20041;-73
2023/09/29 13:21:43;;;;;;;9.10;2.45;;;;;;;;;;5022243;28;20042;-73
2023/09/29 13:24:10;;;;;;;8.18;2.22;;;;;;;;;;5022301;28;20048;-73
2023/09/29 13:26:35;;;;;;;4.63;1.73;;;;;;;;;;5021592;28;20037;-73
2023/09/29 13:29:01;;;;;;;8.15;2.30;;;;;;;;;;5021398;28;20067;-73
2023/09/29 13:31:26;;;;;;;8.18;1.98;;;;;;;;;;5021278;28;20754;-73
2023/09/29 13:33:53;;;;;;;6.63;2.00;;;;;;;;;;5021593;28;20049;-73
2023/09/29 13:36:18;;;;;;;11.55;2.20;;;;;;;;;;5021562;28;20055;-73
2023/09/29 13:38:44;;;;;;;8.73;2.10;;;;;;;;;;5022039;28;20987;-73
2023/09/29 13:41:10;;;;;;;6.25;2.17;;;;;;;;;;5022096;28;20120;-73
2023/09/29 13:43:36;;;;;;;6.10;1.75;;;;;;;;;;5022095;28;20041;-73
2023/09/29 13:46:08;;;;;;;7.65;2.00;;;;;;;;;;5014163;28;20042;-73
2023/09/29 13:48:36;;;;;;;6.03;1.70;;;;;;;;;;5021583;28;20128;-73
2023/09/29 13:51:06;;;;;;;6.50;2.00;;;;;;;;;;5014357;28;20041;-73
2023/09/29 13:53:32;;;;;;;10.27;2.08;;;;;;;;;;5021147;28;20077;-73
2023/09/29 13:55:57;;;;;;;6.80;1.50;;;;;;;;;;5022278;28;20961;-73
2023/09/29 13:58:23;;;;;;;6.70;1.60;;;;;;;;;;5022681;28;20037;-73
2023/09/29 14:00:51;;;;;;;7.45;1.83;;;;;;;;;;5023868;28;20136;-72
2023/09/29 14:03:17;;;;;;;8.68;1.58;;;;;;;;;;5029900;28;20037;-73
2023/09/29 14:05:42;;;;;;;4.47;1.58;;;;;;;;;;5034514;28;20049;-73
2023/09/29 14:08:08;;;;;;;7.10;1.63;;;;;;;;;;5028239;28;20039;-72
2023/09/29 14:10:33;;;;;;;5.28;1.70;;;;;;;;;;5020165;28;20099;-73
2023/09/29 14:12:59;;;;;;;11.18;2.30;;;;;;;;;;5021613;28;20533;-72
2023/09/29 14:15:26;;;;;;;5.32;2.10;;;;;;;;;;5021213;28;20404;-73
2023/09/29 14:17:52;;;;;;;5.95;1.60;;;;;;;;;;5019953;28;20303;-73
2023/09/29 14:20:17;;;;;;;7.10;2.00;;;;;;;;;;5021927;28;20157;-73
2023/09/29 14:22:42;;;;;;;6.75;2.35;;;;;;;;;;5020849;28;20041;-73
2023/09/29 14:25:08;;;;;;;12.23;3.20;;;;;;;;;;5021779;28;20110;-75
2023/09/29 14:27:33;;;;;;;6.88;2.80;;;;;;;;;;5021556;28;20056;-74
2023/09/29 14:29:59;;;;;;;5.82;2.60;;;;;;;;;;5020473;28;20180;-74
2023/09/29 14:32:24;;;;;;;3.90;2.50;;;;;;;;;;5021924;28;20041;-74
2023/09/29 14:34:49;;;;;;;5.68;2.70;;;;;;;;;;5020912;28;20558;-74
2023/09/29 14:37:15;;;;;;;6.65;2.53;;;;;;;;;;5021578;28;20056;-74